sensor_id;sensor_type;location;lat;lon;timestamp;temperature;humidity
18753;DHT22;9505;50.882;5.350;2023-07-22T00:00:39;11.20;99.90
18753;DHT22;9505;50.882;5.350;2023-07-22T00:03:05;11.10;99.90
18753;DHT22;9505;50.882;5.350;2023-07-22T00:05:30;11.10;99.90
18753;DHT22;9505;50.882;5.350;2023-07-22T00:07:56;11.00;99.90
18753;DHT22;9505;50.882;5.350;2023-07-22T00:10:21;11.00;99.90
18753;DHT22;9505;50.882;5.350;2023-07-22T00:12:47;11.00;99.90
18753;DHT22;9505;50.882;5.350;2023-07-22T00:15:13;11.00;99.90
18753;DHT22;9505;50.882;5.350;2023-07-22T00:17:40;11.00;99.90
18753;DHT22;9505;50.882;5.350;2023-07-22T00:20:07;11.00;99.90
18753;DHT22;9505;50.882;5.350;2023-07-22T00:22:37;11.00;99.90
18753;DHT22;9505;50.882;5.350;2023-07-22T00:25:02;11.00;99.90
18753;DHT22;9505;50.882;5.350;2023-07-22T00:27:28;11.00;99.90
18753;DHT22;9505;50.882;5.350;2023-07-22T00:29:54;11.00;99.90
18753;DHT22;9505;50.882;5.350;2023-07-22T00:32:19;11.00;99.90
18753;DHT22;9505;50.882;5.350;2023-07-22T00:34:45;11.00;99.90
18753;DHT22;9505;50.882;5.350;2023-07-22T00:37:11;11.00;99.90
18753;DHT22;9505;50.882;5.350;2023-07-22T00:39:37;11.00;99.90
18753;DHT22;9505;50.882;5.350;2023-07-22T00:42:02;11.00;99.90
18753;DHT22;9505;50.882;5.350;2023-07-22T00:44:28;11.00;99.90
18753;DHT22;9505;50.882;5.350;2023-07-22T00:46:56;11.00;99.90
18753;DHT22;9505;50.882;5.350;2023-07-22T00:49:23;11.00;99.90
18753;DHT22;9505;50.882;5.350;2023-07-22T00:51:51;11.10;99.90
18753;DHT22;9505;50.882;5.350;2023-07-22T00:54:16;11.10;99.90
18753;DHT22;9505;50.882;5.350;2023-07-22T00:56:43;11.10;99.90
18753;DHT22;9505;50.882;5.350;2023-07-22T00:59:09;11.20;99.90
18753;DHT22;9505;50.882;5.350;2023-07-22T01:01:34;11.20;99.90
18753;DHT22;9505;50.882;5.350;2023-07-22T01:04:00;11.20;99.90
18753;DHT22;9505;50.882;5.350;2023-07-22T01:06:27;11.20;99.90
18753;DHT22;9505;50.882;5.350;2023-07-22T01:08:57;11.20;99.90
18753;DHT22;9505;50.882;5.350;2023-07-22T01:11:24;11.20;99.90
18753;DHT22;9505;50.882;5.350;2023-07-22T01:13:49;11.20;99.90
18753;DHT22;9505;50.882;5.350;2023-07-22T01:16:15;11.20;99.90
18753;DHT22;9505;50.882;5.350;2023-07-22T01:18:42;11.20;99.90
18753;DHT22;9505;50.882;5.350;2023-07-22T01:21:08;11.20;99.90
18753;DHT22;9505;50.882;5.350;2023-07-22T01:23:35;11.20;99.90
18753;DHT22;9505;50.882;5.350;2023-07-22T01:26:02;11.20;99.90
18753;DHT22;9505;50.882;5.350;2023-07-22T01:28:28;11.20;99.90
18753;DHT22;9505;50.882;5.350;2023-07-22T01:30:54;11.20;99.90
18753;DHT22;9505;50.882;5.350;2023-07-22T01:33:20;11.20;99.90
18753;DHT22;9505;50.882;5.350;2023-07-22T01:35:45;11.20;99.90
18753;DHT22;9505;50.882;5.350;2023-07-22T01:38:11;11.20;99.90
18753;DHT22;9505;50.882;5.350;2023-07-22T01:40:37;11.20;99.90
18753;DHT22;9505;50.882;5.350;2023-07-22T01:43:03;11.20;99.90
18753;DHT22;9505;50.882;5.350;2023-07-22T01:45:29;11.20;99.90
18753;DHT22;9505;50.882;5.350;2023-07-22T01:47:54;11.30;99.90
18753;DHT22;9505;50.882;5.350;2023-07-22T01:50:20;11.40;99.90
18753;DHT22;9505;50.882;5.350;2023-07-22T01:52:46;11.40;99.90
18753;DHT22;9505;50.882;5.350;2023-07-22T01:55:14;11.40;99.90
18753;DHT22;9505;50.882;5.350;2023-07-22T01:57:41;11.40;99.90
18753;DHT22;9505;50.882;5.350;2023-07-22T02:00:07;11.40;99.90
18753;DHT22;9505;50.882;5.350;2023-07-22T02:02:43;11.40;99.90
18753;DHT22;9505;50.882;5.350;2023-07-22T02:05:09;11.40;99.90
18753;DHT22;9505;50.882;5.350;2023-07-22T02:07:38;11.30;99.90
18753;DHT22;9505;50.882;5.350;2023-07-22T02:10:04;11.30;99.90
18753;DHT22;9505;50.882;5.350;2023-07-22T02:12:31;11.30;99.90
18753;DHT22;9505;50.882;5.350;2023-07-22T02:14:56;11.30;99.90
18753;DHT22;9505;50.882;5.350;2023-07-22T02:17:22;11.30;99.90
18753;DHT22;9505;50.882;5.350;2023-07-22T02:19:49;11.30;99.90
18753;DHT22;9505;50.882;5.350;2023-07-22T02:22:15;11.30;99.90
18753;DHT22;9505;50.882;5.350;2023-07-22T02:24:40;11.30;99.90
18753;DHT22;9505;50.882;5.350;2023-07-22T02:27:06;11.40;99.90
18753;DHT22;9505;50.882;5.350;2023-07-22T02:29:34;11.40;99.90
18753;DHT22;9505;50.882;5.350;2023-07-22T02:31:59;11.50;99.90
18753;DHT22;9505;50.882;5.350;2023-07-22T02:34:25;11.50;99.90
18753;DHT22;9505;50.882;5.350;2023-07-22T02:36:50;11.50;99.90
18753;DHT22;9505;50.882;5.350;2023-07-22T02:39:16;11.60;99.90
18753;DHT22;9505;50.882;5.350;2023-07-22T02:41:42;11.60;99.90
18753;DHT22;9505;50.882;5.350;2023-07-22T02:44:07;11.70;99.90
18753;DHT22;9505;50.882;5.350;2023-07-22T02:46:33;11.70;99.90
18753;DHT22;9505;50.882;5.350;2023-07-22T02:48:59;11.70;99.90
18753;DHT22;9505;50.882;5.350;2023-07-22T02:51:25;11.70;99.90
18753;DHT22;9505;50.882;5.350;2023-07-22T02:53:50;11.70;99.90
18753;DHT22;9505;50.882;5.350;2023-07-22T02:56:16;11.60;99.90
18753;DHT22;9505;50.882;5.350;2023-07-22T02:58:42;11.60;99.90
18753;DHT22;9505;50.882;5.350;2023-07-22T03:01:08;11.50;99.90
18753;DHT22;9505;50.882;5.350;2023-07-22T03:03:35;11.40;99.90
18753;DHT22;9505;50.882;5.350;2023-07-22T03:06:01;11.30;99.90
18753;DHT22;9505;50.882;5.350;2023-07-22T03:08:27;11.20;99.90
18753;DHT22;9505;50.882;5.350;2023-07-22T03:10:53;11.20;99.90
18753;DHT22;9505;50.882;5.350;2023-07-22T03:13:18;11.10;99.90
18753;DHT22;9505;50.882;5.350;2023-07-22T03:15:44;11.10;99.90
18753;DHT22;9505;50.882;5.350;2023-07-22T03:18:10;11.00;99.90
18753;DHT22;9505;50.882;5.350;2023-07-22T03:20:37;11.00;99.90
18753;DHT22;9505;50.882;5.350;2023-07-22T03:23:06;11.00;99.90
18753;DHT22;9505;50.882;5.350;2023-07-22T03:25:33;11.00;99.90
18753;DHT22;9505;50.882;5.350;2023-07-22T03:28:05;11.00;99.90
18753;DHT22;9505;50.882;5.350;2023-07-22T03:30:31;11.00;99.90
18753;DHT22;9505;50.882;5.350;2023-07-22T03:32:58;11.00;99.90
18753;DHT22;9505;50.882;5.350;2023-07-22T03:35:24;11.10;99.90
18753;DHT22;9505;50.882;5.350;2023-07-22T03:37:50;11.10;99.90
18753;DHT22;9505;50.882;5.350;2023-07-22T03:40:15;11.00;99.90
18753;DHT22;9505;50.882;5.350;2023-07-22T03:42:53;11.10;99.90
18753;DHT22;9505;50.882;5.350;2023-07-22T03:45:20;11.10;99.90
18753;DHT22;9505;50.882;5.350;2023-07-22T03:47:47;11.10;99.90
18753;DHT22;9505;50.882;5.350;2023-07-22T03:50:13;11.20;99.90
18753;DHT22;9505;50.882;5.350;2023-07-22T03:52:39;11.30;99.90
18753;DHT22;9505;50.882;5.350;2023-07-22T03:55:05;11.30;99.90
18753;DHT22;9505;50.882;5.350;2023-07-22T03:57:31;11.30;99.90
18753;DHT22;9505;50.882;5.350;2023-07-22T03:59:57;11.30;99.90
18753;DHT22;9505;50.882;5.350;2023-07-22T04:02:23;11.30;99.90
18753;DHT22;9505;50.882;5.350;2023-07-22T04:04:51;11.40;99.90
18753;DHT22;9505;50.882;5.350;2023-07-22T04:07:17;11.30;99.90
18753;DHT22;9505;50.882;5.350;2023-07-22T04:09:43;11.40;99.90
18753;DHT22;9505;50.882;5.350;2023-07-22T04:12:08;11.40;99.90
18753;DHT22;9505;50.882;5.350;2023-07-22T04:14:34;11.40;99.90
18753;DHT22;9505;50.882;5.350;2023-07-22T04:16:59;11.40;99.90
18753;DHT22;9505;50.882;5.350;2023-07-22T04:19:25;11.40;99.90
18753;DHT22;9505;50.882;5.350;2023-07-22T04:21:50;11.40;99.90
18753;DHT22;9505;50.882;5.350;2023-07-22T04:24:16;11.40;99.90
18753;DHT22;9505;50.882;5.350;2023-07-22T04:26:43;11.40;99.90
18753;DHT22;9505;50.882;5.350;2023-07-22T04:29:08;11.50;99.90
18753;DHT22;9505;50.882;5.350;2023-07-22T04:31:34;11.50;99.90
18753;DHT22;9505;50.882;5.350;2023-07-22T04:34:00;11.60;99.90
18753;DHT22;9505;50.882;5.350;2023-07-22T04:36:26;11.60;99.90
18753;DHT22;9505;50.882;5.350;2023-07-22T04:38:51;11.70;99.90
18753;DHT22;9505;50.882;5.350;2023-07-22T04:41:17;11.80;99.90
18753;DHT22;9505;50.882;5.350;2023-07-22T04:43:42;11.90;99.90
18753;DHT22;9505;50.882;5.350;2023-07-22T04:46:08;12.00;99.90
18753;DHT22;9505;50.882;5.350;2023-07-22T04:48:34;12.10;99.90
18753;DHT22;9505;50.882;5.350;2023-07-22T04:51:00;12.20;99.90
18753;DHT22;9505;50.882;5.350;2023-07-22T04:53:25;12.20;99.90
18753;DHT22;9505;50.882;5.350;2023-07-22T04:55:51;12.20;99.90
18753;DHT22;9505;50.882;5.350;2023-07-22T04:58:17;12.20;99.90
18753;DHT22;9505;50.882;5.350;2023-07-22T05:00:43;12.30;99.90
18753;DHT22;9505;50.882;5.350;2023-07-22T05:03:08;12.30;99.90
18753;DHT22;9505;50.882;5.350;2023-07-22T05:05:34;12.40;99.90
18753;DHT22;9505;50.882;5.350;2023-07-22T05:08:01;12.40;99.90
18753;DHT22;9505;50.882;5.350;2023-07-22T05:10:27;12.40;99.90
18753;DHT22;9505;50.882;5.350;2023-07-22T05:12:54;12.50;99.90
18753;DHT22;9505;50.882;5.350;2023-07-22T05:15:20;12.60;99.90
18753;DHT22;9505;50.882;5.350;2023-07-22T05:17:46;12.70;99.90
18753;DHT22;9505;50.882;5.350;2023-07-22T05:20:12;12.80;99.90
18753;DHT22;9505;50.882;5.350;2023-07-22T05:22:39;13.00;99.90
18753;DHT22;9505;50.882;5.350;2023-07-22T05:25:05;13.30;99.90
18753;DHT22;9505;50.882;5.350;2023-07-22T05:27:31;13.60;99.90
18753;DHT22;9505;50.882;5.350;2023-07-22T05:29:57;14.00;99.90
18753;DHT22;9505;50.882;5.350;2023-07-22T05:32:23;14.10;99.90
18753;DHT22;9505;50.882;5.350;2023-07-22T05:34:49;14.30;99.90
18753;DHT22;9505;50.882;5.350;2023-07-22T05:37:14;14.40;99.90
18753;DHT22;9505;50.882;5.350;2023-07-22T05:39:40;14.60;99.90
18753;DHT22;9505;50.882;5.350;2023-07-22T05:42:06;14.50;99.90
18753;DHT22;9505;50.882;5.350;2023-07-22T05:44:31;14.60;99.90
18753;DHT22;9505;50.882;5.350;2023-07-22T05:46:57;14.60;99.90
18753;DHT22;9505;50.882;5.350;2023-07-22T05:49:23;14.70;99.90
18753;DHT22;9505;50.882;5.350;2023-07-22T05:51:49;14.90;99.90
18753;DHT22;9505;50.882;5.350;2023-07-22T05:54:14;14.90;99.90
18753;DHT22;9505;50.882;5.350;2023-07-22T05:56:40;15.00;99.90
18753;DHT22;9505;50.882;5.350;2023-07-22T05:59:06;15.10;99.90
18753;DHT22;9505;50.882;5.350;2023-07-22T06:01:32;15.30;99.90
18753;DHT22;9505;50.882;5.350;2023-07-22T06:03:58;15.40;99.90
18753;DHT22;9505;50.882;5.350;2023-07-22T06:06:23;15.70;99.90
18753;DHT22;9505;50.882;5.350;2023-07-22T06:08:49;16.00;99.90
18753;DHT22;9505;50.882;5.350;2023-07-22T06:11:15;16.40;99.90
18753;DHT22;9505;50.882;5.350;2023-07-22T06:13:40;17.00;99.90
18753;DHT22;9505;50.882;5.350;2023-07-22T06:16:06;17.60;99.90
18753;DHT22;9505;50.882;5.350;2023-07-22T06:18:31;18.40;99.90
18753;DHT22;9505;50.882;5.350;2023-07-22T06:20:57;19.70;99.90
18753;DHT22;9505;50.882;5.350;2023-07-22T06:23:22;20.00;99.90
18753;DHT22;9505;50.882;5.350;2023-07-22T06:25:48;20.40;99.90
18753;DHT22;9505;50.882;5.350;2023-07-22T06:28:13;19.90;99.90
18753;DHT22;9505;50.882;5.350;2023-07-22T06:30:39;20.00;99.90
18753;DHT22;9505;50.882;5.350;2023-07-22T06:33:05;20.10;99.90
18753;DHT22;9505;50.882;5.350;2023-07-22T06:35:31;20.70;99.90
18753;DHT22;9505;50.882;5.350;2023-07-22T06:37:56;20.90;99.90
18753;DHT22;9505;50.882;5.350;2023-07-22T06:40:22;20.90;99.90
18753;DHT22;9505;50.882;5.350;2023-07-22T06:42:47;20.30;99.90
18753;DHT22;9505;50.882;5.350;2023-07-22T06:45:13;19.70;99.90
18753;DHT22;9505;50.882;5.350;2023-07-22T06:47:38;19.70;99.90
18753;DHT22;9505;50.882;5.350;2023-07-22T06:50:04;19.80;99.90
18753;DHT22;9505;50.882;5.350;2023-07-22T06:52:33;20.00;99.90
18753;DHT22;9505;50.882;5.350;2023-07-22T06:54:59;20.00;99.90
18753;DHT22;9505;50.882;5.350;2023-07-22T06:57:25;20.20;99.90
18753;DHT22;9505;50.882;5.350;2023-07-22T06:59:53;19.90;99.90
18753;DHT22;9505;50.882;5.350;2023-07-22T07:02:19;20.00;99.90
18753;DHT22;9505;50.882;5.350;2023-07-22T07:04:44;20.10;99.90
18753;DHT22;9505;50.882;5.350;2023-07-22T07:07:10;19.50;99.90
18753;DHT22;9505;50.882;5.350;2023-07-22T07:09:38;19.60;99.90
18753;DHT22;9505;50.882;5.350;2023-07-22T07:12:04;19.60;99.90
18753;DHT22;9505;50.882;5.350;2023-07-22T07:14:29;20.00;99.90
18753;DHT22;9505;50.882;5.350;2023-07-22T07:16:55;20.30;99.90
18753;DHT22;9505;50.882;5.350;2023-07-22T07:19:21;20.30;99.90
18753;DHT22;9505;50.882;5.350;2023-07-22T07:21:48;20.90;99.90
18753;DHT22;9505;50.882;5.350;2023-07-22T07:24:13;21.60;99.90
18753;DHT22;9505;50.882;5.350;2023-07-22T07:26:39;21.60;99.90
18753;DHT22;9505;50.882;5.350;2023-07-22T07:29:04;21.60;99.90
18753;DHT22;9505;50.882;5.350;2023-07-22T07:31:30;21.60;99.90
18753;DHT22;9505;50.882;5.350;2023-07-22T07:33:56;21.30;99.90
18753;DHT22;9505;50.882;5.350;2023-07-22T07:36:21;21.40;99.90
18753;DHT22;9505;50.882;5.350;2023-07-22T07:38:47;21.60;99.90
18753;DHT22;9505;50.882;5.350;2023-07-22T07:41:12;22.10;99.90
18753;DHT22;9505;50.882;5.350;2023-07-22T07:43:40;22.10;99.90
18753;DHT22;9505;50.882;5.350;2023-07-22T07:46:18;21.70;99.90
18753;DHT22;9505;50.882;5.350;2023-07-22T07:48:47;21.10;99.90
18753;DHT22;9505;50.882;5.350;2023-07-22T07:51:14;21.30;99.90
18753;DHT22;9505;50.882;5.350;2023-07-22T07:53:40;21.00;99.90
18753;DHT22;9505;50.882;5.350;2023-07-22T07:56:07;21.00;99.90
18753;DHT22;9505;50.882;5.350;2023-07-22T07:58:33;20.80;99.90
18753;DHT22;9505;50.882;5.350;2023-07-22T08:00:58;20.60;99.90
18753;DHT22;9505;50.882;5.350;2023-07-22T08:03:24;20.30;99.90
18753;DHT22;9505;50.882;5.350;2023-07-22T08:05:49;20.60;99.90
18753;DHT22;9505;50.882;5.350;2023-07-22T08:08:16;21.40;99.90
18753;DHT22;9505;50.882;5.350;2023-07-22T08:10:41;21.50;99.90
18753;DHT22;9505;50.882;5.350;2023-07-22T08:13:08;21.40;99.90
18753;DHT22;9505;50.882;5.350;2023-07-22T08:15:34;21.40;99.90
18753;DHT22;9505;50.882;5.350;2023-07-22T08:18:00;21.30;99.90
18753;DHT22;9505;50.882;5.350;2023-07-22T08:20:25;21.20;99.90
18753;DHT22;9505;50.882;5.350;2023-07-22T08:22:51;21.30;99.90
18753;DHT22;9505;50.882;5.350;2023-07-22T08:25:16;21.40;99.90
18753;DHT22;9505;50.882;5.350;2023-07-22T08:27:42;21.40;99.90
18753;DHT22;9505;50.882;5.350;2023-07-22T08:30:08;21.60;99.90
18753;DHT22;9505;50.882;5.350;2023-07-22T08:32:33;21.00;99.90
18753;DHT22;9505;50.882;5.350;2023-07-22T08:34:59;21.00;99.90
18753;DHT22;9505;50.882;5.350;2023-07-22T08:37:25;21.50;99.90
18753;DHT22;9505;50.882;5.350;2023-07-22T08:39:50;22.40;99.90
18753;DHT22;9505;50.882;5.350;2023-07-22T08:42:18;23.00;99.90
18753;DHT22;9505;50.882;5.350;2023-07-22T08:44:48;23.10;99.90
18753;DHT22;9505;50.882;5.350;2023-07-22T08:47:15;22.40;99.90
18753;DHT22;9505;50.882;5.350;2023-07-22T08:49:49;20.80;99.90
18753;DHT22;9505;50.882;5.350;2023-07-22T08:52:16;20.30;99.90
18753;DHT22;9505;50.882;5.350;2023-07-22T08:54:43;20.50;99.90
18753;DHT22;9505;50.882;5.350;2023-07-22T08:57:11;20.80;99.90
18753;DHT22;9505;50.882;5.350;2023-07-22T08:59:37;20.70;99.90
18753;DHT22;9505;50.882;5.350;2023-07-22T09:02:03;20.20;99.90
18753;DHT22;9505;50.882;5.350;2023-07-22T09:04:30;20.60;99.90
18753;DHT22;9505;50.882;5.350;2023-07-22T09:06:57;20.70;99.90
18753;DHT22;9505;50.882;5.350;2023-07-22T09:09:24;20.90;99.90
18753;DHT22;9505;50.882;5.350;2023-07-22T09:11:51;21.00;99.90
18753;DHT22;9505;50.882;5.350;2023-07-22T09:14:18;20.70;99.90
18753;DHT22;9505;50.882;5.350;2023-07-22T09:16:44;20.80;99.90
18753;DHT22;9505;50.882;5.350;2023-07-22T09:19:10;21.30;99.90
18753;DHT22;9505;50.882;5.350;2023-07-22T09:21:35;21.60;99.90
18753;DHT22;9505;50.882;5.350;2023-07-22T09:24:01;21.70;99.90
18753;DHT22;9505;50.882;5.350;2023-07-22T09:26:32;22.20;99.90
18753;DHT22;9505;50.882;5.350;2023-07-22T09:28:58;22.10;99.90
18753;DHT22;9505;50.882;5.350;2023-07-22T09:31:27;22.10;99.90
18753;DHT22;9505;50.882;5.350;2023-07-22T09:34:09;22.40;99.90
18753;DHT22;9505;50.882;5.350;2023-07-22T09:36:51;22.60;99.90
18753;DHT22;9505;50.882;5.350;2023-07-22T09:39:17;23.40;99.90
18753;DHT22;9505;50.882;5.350;2023-07-22T09:41:43;23.30;99.90
18753;DHT22;9505;50.882;5.350;2023-07-22T09:44:10;23.20;99.90
18753;DHT22;9505;50.882;5.350;2023-07-22T09:46:36;22.90;99.90
18753;DHT22;9505;50.882;5.350;2023-07-22T09:49:05;22.80;99.90
18753;DHT22;9505;50.882;5.350;2023-07-22T09:51:39;22.50;99.90
18753;DHT22;9505;50.882;5.350;2023-07-22T09:54:05;22.30;99.90
18753;DHT22;9505;50.882;5.350;2023-07-22T09:56:31;23.00;99.90
18753;DHT22;9505;50.882;5.350;2023-07-22T09:58:59;22.80;99.90
18753;DHT22;9505;50.882;5.350;2023-07-22T10:01:26;23.00;99.90
18753;DHT22;9505;50.882;5.350;2023-07-22T10:03:55;23.20;99.90
18753;DHT22;9505;50.882;5.350;2023-07-22T10:06:26;23.30;99.90
18753;DHT22;9505;50.882;5.350;2023-07-22T10:08:53;23.20;99.90
18753;DHT22;9505;50.882;5.350;2023-07-22T10:11:20;23.20;99.90
18753;DHT22;9505;50.882;5.350;2023-07-22T10:13:47;23.20;99.90
18753;DHT22;9505;50.882;5.350;2023-07-22T10:16:13;22.60;99.90
18753;DHT22;9505;50.882;5.350;2023-07-22T10:18:38;22.40;99.90
18753;DHT22;9505;50.882;5.350;2023-07-22T10:21:07;23.10;99.90
18753;DHT22;9505;50.882;5.350;2023-07-22T10:23:32;23.60;99.90
18753;DHT22;9505;50.882;5.350;2023-07-22T10:25:59;24.00;99.90
18753;DHT22;9505;50.882;5.350;2023-07-22T10:28:25;24.20;99.90
18753;DHT22;9505;50.882;5.350;2023-07-22T10:30:54;24.40;99.90
18753;DHT22;9505;50.882;5.350;2023-07-22T10:33:20;23.60;99.90
18753;DHT22;9505;50.882;5.350;2023-07-22T10:38:30;23.60;99.90
18753;DHT22;9505;50.882;5.350;2023-07-22T10:40:56;23.50;99.90
18753;DHT22;9505;50.882;5.350;2023-07-22T10:43:26;23.80;99.90
18753;DHT22;9505;50.882;5.350;2023-07-22T10:45:56;24.00;99.90
18753;DHT22;9505;50.882;5.350;2023-07-22T10:48:26;24.00;99.90
18753;DHT22;9505;50.882;5.350;2023-07-22T10:50:55;24.10;99.90
18753;DHT22;9505;50.882;5.350;2023-07-22T10:56:15;23.80;99.90
18753;DHT22;9505;50.882;5.350;2023-07-22T11:14:24;23.50;99.90
18753;DHT22;9505;50.882;5.350;2023-07-22T11:16:50;23.40;99.90
18753;DHT22;9505;50.882;5.350;2023-07-22T11:19:17;24.00;99.90
18753;DHT22;9505;50.882;5.350;2023-07-22T11:21:45;24.50;99.90
18753;DHT22;9505;50.882;5.350;2023-07-22T11:24:11;24.70;99.90
18753;DHT22;9505;50.882;5.350;2023-07-22T11:26:38;24.70;99.90
18753;DHT22;9505;50.882;5.350;2023-07-22T11:29:05;25.20;99.90
18753;DHT22;9505;50.882;5.350;2023-07-22T11:31:32;24.70;99.90
18753;DHT22;9505;50.882;5.350;2023-07-22T11:33:58;24.40;99.90
18753;DHT22;9505;50.882;5.350;2023-07-22T11:36:25;24.00;99.90
18753;DHT22;9505;50.882;5.350;2023-07-22T11:38:50;24.00;99.90
18753;DHT22;9505;50.882;5.350;2023-07-22T11:41:17;23.90;99.90
18753;DHT22;9505;50.882;5.350;2023-07-22T11:43:43;23.40;99.90
18753;DHT22;9505;50.882;5.350;2023-07-22T11:46:09;23.70;99.90
18753;DHT22;9505;50.882;5.350;2023-07-22T11:48:35;23.80;99.90
18753;DHT22;9505;50.882;5.350;2023-07-22T11:51:01;23.60;99.90
18753;DHT22;9505;50.882;5.350;2023-07-22T11:53:27;23.80;99.90
18753;DHT22;9505;50.882;5.350;2023-07-22T11:55:55;23.80;99.90
18753;DHT22;9505;50.882;5.350;2023-07-22T11:58:25;23.90;99.90
18753;DHT22;9505;50.882;5.350;2023-07-22T12:01:02;24.40;99.90
18753;DHT22;9505;50.882;5.350;2023-07-22T12:03:34;24.80;99.90
18753;DHT22;9505;50.882;5.350;2023-07-22T12:06:01;24.20;99.90
18753;DHT22;9505;50.882;5.350;2023-07-22T12:08:28;23.60;99.90
18753;DHT22;9505;50.882;5.350;2023-07-22T12:11:00;23.40;99.90
18753;DHT22;9505;50.882;5.350;2023-07-22T12:13:25;23.90;99.90
18753;DHT22;9505;50.882;5.350;2023-07-22T12:16:05;24.10;99.90
18753;DHT22;9505;50.882;5.350;2023-07-22T12:18:44;24.10;99.90
18753;DHT22;9505;50.882;5.350;2023-07-22T12:21:10;23.60;99.90
18753;DHT22;9505;50.882;5.350;2023-07-22T12:23:37;23.90;99.90
18753;DHT22;9505;50.882;5.350;2023-07-22T12:26:04;24.50;99.90
18753;DHT22;9505;50.882;5.350;2023-07-22T12:28:29;24.70;98.80
18753;DHT22;9505;50.882;5.350;2023-07-22T12:30:55;24.50;99.70
18753;DHT22;9505;50.882;5.350;2023-07-22T12:33:23;24.20;99.90
18753;DHT22;9505;50.882;5.350;2023-07-22T12:35:49;24.10;99.90
18753;DHT22;9505;50.882;5.350;2023-07-22T12:38:15;23.60;99.90
18753;DHT22;9505;50.882;5.350;2023-07-22T12:40:41;23.90;99.70
18753;DHT22;9505;50.882;5.350;2023-07-22T12:43:07;23.70;99.90
18753;DHT22;9505;50.882;5.350;2023-07-22T12:45:33;23.70;99.90
18753;DHT22;9505;50.882;5.350;2023-07-22T12:47:59;24.20;99.90
18753;DHT22;9505;50.882;5.350;2023-07-22T12:50:24;24.20;99.50
18753;DHT22;9505;50.882;5.350;2023-07-22T12:52:50;24.80;99.90
18753;DHT22;9505;50.882;5.350;2023-07-22T12:55:15;25.10;97.80
18753;DHT22;9505;50.882;5.350;2023-07-22T12:57:41;24.60;97.80
18753;DHT22;9505;50.882;5.350;2023-07-22T13:00:07;24.30;98.60
18753;DHT22;9505;50.882;5.350;2023-07-22T13:02:35;24.00;99.40
18753;DHT22;9505;50.882;5.350;2023-07-22T13:05:01;23.80;99.80
18753;DHT22;9505;50.882;5.350;2023-07-22T13:07:27;24.40;99.90
18753;DHT22;9505;50.882;5.350;2023-07-22T13:09:53;25.20;99.40
18753;DHT22;9505;50.882;5.350;2023-07-22T13:12:20;24.80;99.20
18753;DHT22;9505;50.882;5.350;2023-07-22T13:14:46;24.80;98.30
18753;DHT22;9505;50.882;5.350;2023-07-22T13:17:12;24.60;97.90
18753;DHT22;9505;50.882;5.350;2023-07-22T13:19:37;24.40;97.70
18753;DHT22;9505;50.882;5.350;2023-07-22T13:22:03;24.50;97.60
18753;DHT22;9505;50.882;5.350;2023-07-22T13:24:29;24.40;99.00
18753;DHT22;9505;50.882;5.350;2023-07-22T13:26:55;24.50;98.30
18753;DHT22;9505;50.882;5.350;2023-07-22T13:29:21;24.80;98.60
18753;DHT22;9505;50.882;5.350;2023-07-22T13:31:46;24.40;98.30
18753;DHT22;9505;50.882;5.350;2023-07-22T13:34:12;24.30;98.70
18753;DHT22;9505;50.882;5.350;2023-07-22T13:36:37;24.50;98.50
18753;DHT22;9505;50.882;5.350;2023-07-22T13:39:03;25.20;97.40
18753;DHT22;9505;50.882;5.350;2023-07-22T13:41:28;25.40;98.90
18753;DHT22;9505;50.882;5.350;2023-07-22T13:43:54;26.20;98.10
18753;DHT22;9505;50.882;5.350;2023-07-22T13:46:20;26.00;97.30
18753;DHT22;9505;50.882;5.350;2023-07-22T13:48:45;25.60;96.90
18753;DHT22;9505;50.882;5.350;2023-07-22T13:51:11;25.30;97.10
18753;DHT22;9505;50.882;5.350;2023-07-22T13:53:37;25.50;97.20
18753;DHT22;9505;50.882;5.350;2023-07-22T13:56:02;25.50;96.70
18753;DHT22;9505;50.882;5.350;2023-07-22T13:58:28;25.20;96.80
18753;DHT22;9505;50.882;5.350;2023-07-22T14:00:54;25.10;97.60
18753;DHT22;9505;50.882;5.350;2023-07-22T14:03:19;25.10;96.80
18753;DHT22;9505;50.882;5.350;2023-07-22T14:05:46;24.40;98.10
18753;DHT22;9505;50.882;5.350;2023-07-22T14:08:12;24.00;98.20
18753;DHT22;9505;50.882;5.350;2023-07-22T14:10:37;24.30;98.30
18753;DHT22;9505;50.882;5.350;2023-07-22T14:13:03;24.30;97.60
18753;DHT22;9505;50.882;5.350;2023-07-22T14:15:29;24.60;98.70
18753;DHT22;9505;50.882;5.350;2023-07-22T14:17:54;24.90;97.90
18753;DHT22;9505;50.882;5.350;2023-07-22T14:20:20;24.80;96.60
18753;DHT22;9505;50.882;5.350;2023-07-22T14:22:45;25.00;97.30
18753;DHT22;9505;50.882;5.350;2023-07-22T14:25:11;25.10;97.00
18753;DHT22;9505;50.882;5.350;2023-07-22T14:27:40;24.90;97.00
18753;DHT22;9505;50.882;5.350;2023-07-22T14:30:06;24.50;97.40
18753;DHT22;9505;50.882;5.350;2023-07-22T14:32:32;24.60;97.60
18753;DHT22;9505;50.882;5.350;2023-07-22T14:34:58;24.60;97.10
18753;DHT22;9505;50.882;5.350;2023-07-22T14:37:23;24.30;96.90
18753;DHT22;9505;50.882;5.350;2023-07-22T14:39:49;23.90;97.80
18753;DHT22;9505;50.882;5.350;2023-07-22T14:42:15;24.00;97.10
18753;DHT22;9505;50.882;5.350;2023-07-22T14:44:40;23.60;97.60
18753;DHT22;9505;50.882;5.350;2023-07-22T14:47:06;23.80;97.90
18753;DHT22;9505;50.882;5.350;2023-07-22T14:49:32;24.50;97.00
18753;DHT22;9505;50.882;5.350;2023-07-22T14:51:57;24.50;96.30
18753;DHT22;9505;50.882;5.350;2023-07-22T14:54:23;24.60;96.30
18753;DHT22;9505;50.882;5.350;2023-07-22T14:56:48;24.20;95.80
18753;DHT22;9505;50.882;5.350;2023-07-22T14:59:15;24.10;95.90
18753;DHT22;9505;50.882;5.350;2023-07-22T15:01:41;23.90;96.40
18753;DHT22;9505;50.882;5.350;2023-07-22T15:04:08;24.20;96.00
18753;DHT22;9505;50.882;5.350;2023-07-22T15:06:34;24.10;96.20
18753;DHT22;9505;50.882;5.350;2023-07-22T15:09:02;24.00;95.80
18753;DHT22;9505;50.882;5.350;2023-07-22T15:11:27;24.20;96.20
18753;DHT22;9505;50.882;5.350;2023-07-22T15:13:53;24.10;95.80
18753;DHT22;9505;50.882;5.350;2023-07-22T15:16:19;24.20;96.00
18753;DHT22;9505;50.882;5.350;2023-07-22T15:18:44;24.20;95.70
18753;DHT22;9505;50.882;5.350;2023-07-22T15:21:10;24.10;96.50
18753;DHT22;9505;50.882;5.350;2023-07-22T15:23:35;23.60;97.00
18753;DHT22;9505;50.882;5.350;2023-07-22T15:26:01;23.80;97.30
18753;DHT22;9505;50.882;5.350;2023-07-22T15:28:27;23.80;96.40
18753;DHT22;9505;50.882;5.350;2023-07-22T15:30:55;23.80;96.60
18753;DHT22;9505;50.882;5.350;2023-07-22T15:33:21;23.50;96.50
18753;DHT22;9505;50.882;5.350;2023-07-22T15:35:47;23.40;97.50
18753;DHT22;9505;50.882;5.350;2023-07-22T15:38:13;23.40;97.30
18753;DHT22;9505;50.882;5.350;2023-07-22T15:40:39;23.30;97.20
18753;DHT22;9505;50.882;5.350;2023-07-22T15:43:04;23.50;96.60
18753;DHT22;9505;50.882;5.350;2023-07-22T15:45:30;23.30;97.10
18753;DHT22;9505;50.882;5.350;2023-07-22T15:47:56;23.50;97.50
18753;DHT22;9505;50.882;5.350;2023-07-22T15:50:21;23.80;97.10
18753;DHT22;9505;50.882;5.350;2023-07-22T15:52:47;24.00;96.50
18753;DHT22;9505;50.882;5.350;2023-07-22T15:55:13;24.10;97.50
18753;DHT22;9505;50.882;5.350;2023-07-22T15:57:39;24.10;97.60
18753;DHT22;9505;50.882;5.350;2023-07-22T16:00:05;24.40;96.80